createdAt,value
2023-02-17T00:01:32.844Z,100231.95
2023-02-17T00:04:01.462Z,100230.98
2023-02-17T00:06:32.033Z,100230.48
2023-02-17T00:09:00.356Z,100224.63
2023-02-17T00:11:28.798Z,100225.11
2023-02-17T00:13:57.044Z,100227.06
2023-02-17T00:16:27.148Z,100219.69
2023-02-17T00:18:57.443Z,100214.75
2023-02-17T00:21:27.872Z,100212.46
2023-02-17T00:23:57.635Z,100207.75
2023-02-17T00:26:25.390Z,100205.04
2023-02-17T00:28:53.217Z,100203.73
2023-02-17T00:31:23.431Z,100201.83
2023-02-17T00:33:55.760Z,100195.75
2023-02-17T00:36:25.464Z,100192.40
2023-02-17T00:38:55.720Z,100186.39
2023-02-17T00:41:26.312Z,100182.86
2023-02-17T00:43:54.119Z,100186.01
2023-02-17T00:46:24.084Z,100189.83
2023-02-17T00:48:53.853Z,100187.17
2023-02-17T00:51:22.639Z,100190.21
2023-02-17T00:53:51.231Z,100178.45
2023-02-17T00:56:19.051Z,100182.68
2023-02-17T00:58:46.794Z,100179.82
2023-02-17T01:01:15.120Z,100181.49
2023-02-17T01:03:43.858Z,100175.91
2023-02-17T01:06:24.782Z,100171.52
2023-02-17T01:08:53.580Z,100169.35
2023-02-17T01:11:27.524Z,100169.30
2023-02-17T01:13:56.469Z,100162.98
2023-02-17T01:16:27.956Z,100154.20
2023-02-17T01:18:56.297Z,100154.30
2023-02-17T01:21:26.714Z,100159.17
2023-02-17T01:23:57.778Z,100159.55
2023-02-17T01:26:27.928Z,100156.31
2023-02-17T01:28:56.196Z,100156.20
2023-02-17T01:31:27.122Z,100158.85
2023-02-17T01:34:01.043Z,100154.60
2023-02-17T01:36:29.735Z,100149.65
2023-02-17T01:38:57.634Z,100140.16
2023-02-17T01:41:27.555Z,100136.42
2023-02-17T01:44:14.338Z,100132.90
2023-02-17T01:46:46.068Z,100139.08
2023-02-17T01:49:16.770Z,100134.72
2023-02-17T01:51:49.077Z,100134.00
2023-02-17T01:54:22.296Z,100132.09
2023-02-17T01:56:51.212Z,100126.02
2023-02-17T01:59:21.642Z,100125.68
2023-02-17T02:01:54.626Z,100118.20
2023-02-17T02:04:25.882Z,100116.45
2023-02-17T02:06:53.971Z,100110.44
2023-02-17T02:09:32.767Z,100112.21
2023-02-17T02:12:00.638Z,100112.66
2023-02-17T02:14:32.499Z,100113.05
2023-02-17T02:17:18.753Z,100106.66
2023-02-17T02:20:08.745Z,100104.02
2023-02-17T02:23:07.301Z,100107.02
2023-02-17T02:25:54.096Z,100101.33
2023-02-17T02:28:35.481Z,100099.54
2023-02-17T02:31:21.914Z,100090.36
2023-02-17T02:33:58.803Z,100090.95
2023-02-17T02:36:34.456Z,100089.70
2023-02-17T02:39:17.281Z,100087.64
2023-02-17T02:41:58.179Z,100086.06
2023-02-17T02:44:26.117Z,100075.54
2023-02-17T02:46:58.914Z,100070.92
2023-02-17T02:49:28.355Z,100078.10
2023-02-17T02:52:19.882Z,100078.36
2023-02-17T02:55:03.622Z,100071.95
2023-02-17T02:57:34.312Z,100072.30
2023-02-17T03:00:20.791Z,100068.44
2023-02-17T03:03:04.481Z,100064.13
2023-02-17T03:06:08.627Z,100058.47
2023-02-17T03:08:42.691Z,100057.65
2023-02-17T03:11:11.770Z,100056.83
2023-02-17T03:13:41.044Z,100054.42
2023-02-17T03:16:14.494Z,100052.79
2023-02-17T03:18:42.307Z,100056.02
2023-02-17T03:21:16.063Z,100058.13
2023-02-17T03:23:44.132Z,100057.96
2023-02-17T03:26:11.994Z,100057.80
2023-02-17T03:28:40.038Z,100057.02
2023-02-17T03:31:08.268Z,100057.30
2023-02-17T03:33:36.048Z,100054.48
2023-02-17T03:36:04.386Z,100049.05
2023-02-17T03:38:32.299Z,100049.62
2023-02-17T03:41:00.283Z,100046.84
2023-02-17T03:43:28.021Z,100049.29
2023-02-17T03:45:55.950Z,100043.63
2023-02-17T03:48:23.759Z,100042.80
2023-02-17T03:50:51.491Z,100037.21
2023-02-17T03:53:19.212Z,100034.60
2023-02-17T03:55:46.937Z,100030.16
2023-02-17T03:58:14.664Z,100026.69
2023-02-17T04:00:42.421Z,100025.15
2023-02-17T04:03:10.122Z,100023.69
2023-02-17T04:05:37.822Z,100021.58
2023-02-17T04:08:05.557Z,100018.38
2023-02-17T04:10:33.306Z,100018.80
2023-02-17T04:13:01.347Z,100015.66
2023-02-17T04:15:29.852Z,100008.33
2023-02-17T04:17:57.678Z,100003.61
2023-02-17T04:20:25.469Z,99998.57
2023-02-17T04:22:53.244Z,99997.61
2023-02-17T04:25:20.954Z,99993.33
2023-02-17T04:27:48.816Z,99990.21
2023-02-17T04:30:16.680Z,99985.88
2023-02-17T04:32:44.385Z,99981.55
2023-02-17T04:35:12.131Z,99973.80
2023-02-17T04:37:39.831Z,99969.45
2023-02-17T04:40:10.251Z,99970.59
2023-02-17T04:42:38.442Z,99968.83
2023-02-17T04:45:07.402Z,99963.54
2023-02-17T04:47:35.555Z,99961.04
2023-02-17T04:50:04.270Z,99964.95
2023-02-17T04:52:32.017Z,99960.53
2023-02-17T04:54:59.873Z,99957.01
2023-02-17T04:57:27.863Z,99952.77
2023-02-17T04:59:55.679Z,99950.01
2023-02-17T05:02:25.449Z,99954.39
2023-02-17T05:04:54.038Z,99957.96
2023-02-17T05:07:22.327Z,99959.80
2023-02-17T05:09:50.040Z,99963.77
2023-02-17T05:12:17.748Z,99963.45
2023-02-17T05:14:45.896Z,99961.10
2023-02-17T05:17:13.739Z,99958.89
2023-02-17T05:19:41.468Z,99960.42
2023-02-17T05:22:09.815Z,99958.75
2023-02-17T05:24:38.857Z,99952.08
2023-02-17T05:27:07.644Z,99957.55
2023-02-17T05:29:35.477Z,99955.97
2023-02-17T05:32:03.655Z,99957.98
2023-02-17T05:34:32.032Z,99959.89
2023-02-17T05:36:59.931Z,99963.30
2023-02-17T05:39:27.819Z,99962.09
2023-02-17T05:41:56.719Z,99955.78
2023-02-17T05:44:24.568Z,99953.50
2023-02-17T05:46:52.349Z,99954.59
2023-02-17T05:49:20.114Z,99948.62
2023-02-17T05:51:48.264Z,99942.38
2023-02-17T05:54:16.145Z,99938.75
2023-02-17T05:56:43.924Z,99942.23
2023-02-17T05:59:11.658Z,99935.11
2023-02-17T06:01:39.417Z,99936.14
2023-02-17T06:04:07.156Z,99937.09
2023-02-17T06:06:34.913Z,99934.40
2023-02-17T06:09:03.593Z,99930.05
2023-02-17T06:11:31.486Z,99929.61
2023-02-17T06:13:59.281Z,99928.94
2023-02-17T06:16:27.133Z,99924.59
2023-02-17T06:18:55.198Z,99925.76
2023-02-17T06:21:22.986Z,99922.48
2023-02-17T06:23:51.102Z,99920.85
2023-02-17T06:26:18.862Z,99916.61
2023-02-17T06:28:46.795Z,99913.55
2023-02-17T06:31:14.634Z,99910.70
2023-02-17T06:33:42.614Z,99910.15
2023-02-17T06:36:10.501Z,99906.36
2023-02-17T06:38:38.356Z,99908.08
2023-02-17T06:41:06.122Z,99909.02
2023-02-17T06:43:33.863Z,99907.55
2023-02-17T06:46:01.870Z,99913.55
2023-02-17T06:48:32.919Z,99917.06
2023-02-17T06:51:01.243Z,99911.81
2023-02-17T06:53:29.008Z,99912.20
2023-02-17T06:55:56.874Z,99913.63
2023-02-17T06:58:24.599Z,99914.14
2023-02-17T07:00:52.376Z,99913.82
2023-02-17T07:03:20.141Z,99912.02
2023-02-17T07:05:47.931Z,99909.88
2023-02-17T07:08:15.789Z,99912.70
2023-02-17T07:10:43.586Z,99909.23
2023-02-17T07:13:11.298Z,99912.32
2023-02-17T07:15:39.072Z,99906.60
2023-02-17T07:18:07.123Z,99906.09
2023-02-17T07:20:39.113Z,99907.59
2023-02-17T07:23:07.827Z,99910.09
2023-02-17T07:25:43.244Z,99909.98
2023-02-17T07:28:11.335Z,99910.58
2023-02-17T07:30:40.354Z,99911.23
2023-02-17T07:33:08.360Z,99910.64
2023-02-17T07:35:52.959Z,99910.45
2023-02-17T07:38:20.995Z,99910.66
2023-02-17T07:40:48.936Z,99907.16
2023-02-17T07:43:16.896Z,99910.08
2023-02-17T07:45:46.378Z,99908.21
2023-02-17T07:48:14.252Z,99904.34
2023-02-17T07:50:42.005Z,99902.77
2023-02-17T07:53:10.032Z,99903.95
2023-02-17T07:55:38.025Z,99901.31
2023-02-17T07:58:05.767Z,99905.27
2023-02-17T08:00:33.630Z,99905.92
2023-02-17T08:03:01.711Z,99895.98
2023-02-17T08:05:29.467Z,99893.63
2023-02-17T08:08:13.114Z,99894.77
2023-02-17T08:10:56.952Z,99889.94
2023-02-17T08:13:25.332Z,99892.31
2023-02-17T08:15:53.282Z,99891.05
2023-02-17T08:18:21.384Z,99885.55
2023-02-17T08:20:50.382Z,99885.83
2023-02-17T08:23:21.216Z,99892.38
2023-02-17T08:25:49.553Z,99889.63
2023-02-17T08:28:17.880Z,99878.90
2023-02-17T08:30:45.755Z,99871.33
2023-02-17T08:33:17.903Z,99859.57
2023-02-17T08:35:46.486Z,99850.98
2023-02-17T08:38:14.766Z,99843.73
2023-02-17T08:40:42.475Z,99843.89
2023-02-17T08:43:10.312Z,99840.06
2023-02-17T08:45:38.484Z,99837.09
2023-02-17T08:48:07.430Z,99836.88
2023-02-17T08:50:35.162Z,99838.50
2023-02-17T08:53:03.035Z,99830.95
2023-02-17T08:55:44.106Z,99833.08
2023-02-17T08:58:16.871Z,99823.98
2023-02-17T09:00:44.806Z,99825.52
2023-02-17T09:03:12.935Z,99823.16
2023-02-17T09:05:40.777Z,99820.30
2023-02-17T09:08:08.673Z,99815.80
2023-02-17T09:10:37.737Z,99814.11
2023-02-17T09:13:07.397Z,99814.08
2023-02-17T09:15:35.495Z,99802.89
2023-02-17T09:18:03.426Z,99805.63
2023-02-17T09:20:31.372Z,99796.60
2023-02-17T09:22:59.258Z,99798.58
2023-02-17T09:25:27.041Z,99796.38
2023-02-17T09:27:54.985Z,99791.70
2023-02-17T09:30:22.916Z,99794.65
2023-02-17T09:32:50.754Z,99789.41
2023-02-17T09:35:19.158Z,99792.55
2023-02-17T09:37:46.909Z,99789.90
2023-02-17T09:40:35.890Z,99786.19
2023-02-17T09:43:03.799Z,99787.23
2023-02-17T09:45:36.064Z,99780.45
2023-02-17T09:48:08.637Z,99773.39
2023-02-17T09:51:00.220Z,99767.44
2023-02-17T09:53:51.451Z,99761.34
2023-02-17T09:56:25.406Z,99763.55
2023-02-17T09:58:58.970Z,99756.77
2023-02-17T10:01:32.941Z,99757.91
2023-02-17T10:04:19.837Z,99756.95
2023-02-17T10:06:59.212Z,99749.23
2023-02-17T10:09:34.755Z,99740.79
2023-02-17T10:12:13.727Z,99731.52
2023-02-17T10:14:57.407Z,99728.35
2023-02-17T10:17:55.047Z,99730.36
2023-02-17T10:20:25.596Z,99717.69
2023-02-17T10:23:22.412Z,99716.18
2023-02-17T10:26:22.144Z,99715.95
2023-02-17T10:29:07.374Z,99712.41
2023-02-17T10:31:51.132Z,99708.15
2023-02-17T10:34:26.418Z,99704.69
2023-02-17T10:37:01.906Z,99698.55
2023-02-17T10:39:52.814Z,99689.97
2023-02-17T10:42:39.561Z,99682.93
2023-02-17T10:45:18.356Z,99677.60
2023-02-17T10:47:47.246Z,99670.44
2023-02-17T10:50:22.768Z,99669.52
2023-02-17T10:52:51.338Z,99664.17
2023-02-17T10:55:23.688Z,99667.39
2023-02-17T10:58:05.485Z,99657.02
2023-02-17T11:00:33.355Z,99650.33
2023-02-17T11:03:01.130Z,99644.65
2023-02-17T11:05:32.537Z,99644.90
2023-02-17T11:08:23.666Z,99639.45
2023-02-17T11:11:00.823Z,99629.95
2023-02-17T11:13:39.542Z,99615.23
2023-02-17T11:16:25.376Z,99605.45
2023-02-17T11:18:53.929Z,99596.27
2023-02-17T11:21:22.318Z,99592.20
2023-02-17T11:24:02.064Z,99584.13
2023-02-17T11:26:33.140Z,99579.73
2023-02-17T11:29:10.345Z,99571.11
2023-02-17T11:31:38.381Z,99554.75
2023-02-17T11:34:15.371Z,99538.19
2023-02-17T11:36:46.280Z,99531.30
2023-02-17T11:39:20.472Z,99536.09
2023-02-17T11:41:48.856Z,99528.95
2023-02-17T11:44:27.770Z,99525.95
2023-02-17T11:47:24.441Z,99521.86
2023-02-17T11:50:13.632Z,99511.63
2023-02-17T11:52:47.490Z,99503.19
2023-02-17T11:55:29.326Z,99489.48
2023-02-17T11:58:29.007Z,99486.38
2023-02-17T12:01:19.935Z,99491.67
2023-02-17T12:04:18.595Z,99486.11
2023-02-17T12:06:58.111Z,99482.40
2023-02-17T12:09:48.036Z,99473.17
2023-02-17T12:12:52.011Z,99468.43
2023-02-17T12:15:41.519Z,99457.95
2023-02-17T12:18:45.499Z,99451.00
2023-02-17T12:21:16.403Z,99458.45
2023-02-17T12:24:16.625Z,99450.36
2023-02-17T12:27:05.657Z,99438.77
2023-02-17T12:29:34.769Z,99431.75
2023-02-17T12:32:21.326Z,99424.73
2023-02-17T12:34:59.345Z,99420.08
2023-02-17T12:37:32.027Z,99412.79
2023-02-17T12:40:04.722Z,99399.81
2023-02-17T12:42:58.584Z,99393.83
2023-02-17T12:45:39.598Z,99383.93
2023-02-17T12:48:17.632Z,99383.17
2023-02-17T12:50:58.327Z,99373.14
2023-02-17T12:53:49.558Z,99369.66
2023-02-17T12:56:39.179Z,99363.87
2023-02-17T12:59:27.238Z,99364.94
2023-02-17T13:02:01.313Z,99354.37
2023-02-17T13:04:31.399Z,99351.12
2023-02-17T13:07:01.947Z,99348.42
2023-02-17T13:09:47.025Z,99337.94
2023-02-17T13:12:18.136Z,99330.74
2023-02-17T13:14:49.393Z,99319.16
2023-02-17T13:17:40.627Z,99312.14
2023-02-17T13:20:11.161Z,99308.48
2023-02-17T13:22:41.893Z,99309.95
2023-02-17T13:25:27.339Z,99301.56
2023-02-17T13:27:55.457Z,99300.29
2023-02-17T13:30:26.142Z,99295.75
2023-02-17T13:33:06.603Z,99297.16
2023-02-17T13:35:36.952Z,99289.52
2023-02-17T13:38:05.014Z,99287.23
2023-02-17T13:40:36.612Z,99287.43
2023-02-17T13:43:19.246Z,99284.38
2023-02-17T13:45:56.882Z,99278.07
2023-02-17T13:48:25.927Z,99271.92
2023-02-17T13:50:55.060Z,99265.66
2023-02-17T13:53:37.536Z,99261.11
2023-02-17T13:56:09.181Z,99256.58
2023-02-17T13:58:40.398Z,99250.40
2023-02-17T14:01:15.802Z,99246.48
2023-02-17T14:03:56.093Z,99238.71
2023-02-17T14:06:36.083Z,99226.14
2023-02-17T14:09:20.890Z,99221.58
2023-02-17T14:11:49.873Z,99219.89
2023-02-17T14:14:18.421Z,99210.34
2023-02-17T14:16:55.547Z,99202.96
2023-02-17T14:19:23.248Z,99195.84
2023-02-17T14:21:58.858Z,99185.90
2023-02-17T14:24:32.941Z,99172.04
2023-02-17T14:27:03.309Z,99169.16
2023-02-17T14:29:48.198Z,99159.69
2023-02-17T14:32:31.926Z,99147.98
2023-02-17T14:35:10.044Z,99137.75
2023-02-17T14:37:39.712Z,99123.43
2023-02-17T14:40:17.661Z,99116.48
2023-02-17T14:42:47.150Z,99108.20
2023-02-17T14:45:16.290Z,99100.04
2023-02-17T14:47:44.927Z,99095.11
2023-02-17T14:50:13.382Z,99083.95
2023-02-17T14:55:59.118Z,99071.88
2023-02-17T14:58:29.061Z,99065.30
2023-02-17T15:00:57.332Z,99060.02
2023-02-17T15:03:25.173Z,99052.39
2023-02-17T15:05:54.144Z,99048.66
2023-02-17T15:08:30.305Z,99042.89
2023-02-17T15:10:58.181Z,99036.23
2023-02-17T15:13:26.739Z,99028.92
2023-02-17T15:15:54.655Z,99023.19
2023-02-17T15:18:22.618Z,99018.63
2023-02-17T15:20:51.514Z,99012.96
2023-02-17T15:23:21.874Z,99009.23
2023-02-17T15:25:50.048Z,99009.09
2023-02-17T15:28:19.913Z,99004.25
2023-02-17T15:30:54.421Z,98998.10
2023-02-17T15:33:24.524Z,98999.44
2023-02-17T15:35:54.254Z,98995.45
2023-02-17T15:38:23.383Z,98991.09
2023-02-17T15:40:51.200Z,98987.92
2023-02-17T15:43:22.588Z,98981.41
2023-02-17T15:45:50.339Z,98977.56
2023-02-17T15:48:27.263Z,98971.32
2023-02-17T15:50:55.885Z,98965.33
2023-02-17T15:53:23.654Z,98957.27
2023-02-17T15:55:52.487Z,98954.56
2023-02-17T15:58:22.887Z,98956.01
2023-02-17T16:00:51.276Z,98948.42
2023-02-17T16:03:19.234Z,98949.05
2023-02-17T16:05:47.899Z,98943.55
2023-02-17T16:08:15.618Z,98935.89
2023-02-17T16:10:45.368Z,98929.23
2023-02-17T16:13:17.411Z,98921.80
2023-02-17T16:15:48.073Z,98922.98
2023-02-17T16:18:24.033Z,98922.48
2023-02-17T16:20:52.418Z,98909.98
2023-02-17T16:23:20.368Z,98895.27
2023-02-17T16:25:50.233Z,98895.70
2023-02-17T16:28:22.257Z,98894.81
2023-02-17T16:30:50.712Z,98891.98
2023-02-17T16:33:19.135Z,98884.84
2023-02-17T16:35:49.623Z,98868.07
2023-02-17T16:38:22.738Z,98880.56
2023-02-17T16:40:52.769Z,98879.02
2023-02-17T16:43:23.921Z,98864.43
2023-02-17T16:46:00.466Z,98865.19
2023-02-17T16:48:31.792Z,98861.91
2023-02-17T16:50:59.614Z,98852.77
2023-02-17T16:53:27.868Z,98848.52
2023-02-17T16:55:56.172Z,98842.59
2023-02-17T16:58:25.858Z,98830.30
2023-02-17T17:00:55.923Z,98817.59
2023-02-17T17:03:23.762Z,98811.17
2023-02-17T17:05:52.780Z,98815.83
2023-02-17T17:08:22.156Z,98811.94
2023-02-17T17:10:50.224Z,98801.16
2023-02-17T17:13:18.004Z,98798.61
2023-02-17T17:15:46.257Z,98798.33
2023-02-17T17:18:21.058Z,98787.63
2023-02-17T17:20:49.486Z,98787.58
2023-02-17T17:23:18.298Z,98780.89
2023-02-17T17:25:47.017Z,98780.84
2023-02-17T17:28:17.018Z,98792.31
2023-02-17T17:30:45.816Z,98778.38
2023-02-17T17:33:13.859Z,98778.52
2023-02-17T17:35:41.946Z,98779.25
2023-02-17T17:38:14.201Z,98779.33
2023-02-17T17:40:53.237Z,98769.59
2023-02-17T17:43:22.243Z,98759.23
2023-02-17T17:45:51.400Z,98761.17
2023-02-17T17:48:19.330Z,98760.20
2023-02-17T17:50:49.713Z,98754.90
2023-02-17T17:53:17.506Z,98750.08
2023-02-17T17:55:47.194Z,98752.68
2023-02-17T17:58:16.190Z,98742.41
2023-02-17T18:00:44.051Z,98746.46
2023-02-17T18:03:11.758Z,98754.52
2023-02-17T18:05:40.157Z,98743.74
2023-02-17T18:08:09.112Z,98744.61
2023-02-17T18:10:39.023Z,98741.10
2023-02-17T18:13:10.401Z,98751.23
2023-02-17T18:15:39.887Z,98747.23
2023-02-17T18:18:08.478Z,98737.48
2023-02-17T18:20:36.204Z,98744.41
2023-02-17T18:23:04.000Z,98735.52
2023-02-17T18:25:31.997Z,98742.27
2023-02-17T18:27:59.842Z,98733.20
2023-02-17T18:30:28.317Z,98729.80
2023-02-17T18:32:56.185Z,98729.33
2023-02-17T18:35:23.951Z,98717.88
2023-02-17T18:37:51.978Z,98725.77
2023-02-17T18:40:21.386Z,98723.39
2023-02-17T18:42:49.190Z,98716.09
2023-02-17T18:45:17.152Z,98719.82
2023-02-17T18:47:46.112Z,98718.38
2023-02-17T18:50:15.373Z,98699.21
2023-02-17T18:52:44.019Z,98704.05
2023-02-17T18:55:13.494Z,98690.80
2023-02-17T18:57:41.797Z,98681.55
2023-02-17T19:00:11.197Z,98690.95
2023-02-17T19:02:40.148Z,98679.16
2023-02-17T19:05:10.221Z,98681.19
2023-02-17T19:07:38.007Z,98678.02
2023-02-17T19:10:06.673Z,98669.45
2023-02-17T19:12:34.537Z,98662.17
2023-02-17T19:15:02.372Z,98661.20
2023-02-17T19:17:30.173Z,98666.43
2023-02-17T19:19:58.085Z,98649.82
2023-02-17T19:22:25.845Z,98650.41
2023-02-17T19:24:55.989Z,98648.39
2023-02-17T19:27:23.771Z,98649.08
2023-02-17T19:29:51.518Z,98646.25
2023-02-17T19:32:19.544Z,98644.05
2023-02-17T19:34:47.374Z,98636.75
2023-02-17T19:37:15.513Z,98640.02
2023-02-17T19:39:43.306Z,98647.02
2023-02-17T19:42:11.077Z,98635.41
2023-02-17T19:44:38.858Z,98626.30
2023-02-17T19:47:06.666Z,98627.72
2023-02-17T19:49:34.479Z,98617.40
2023-02-17T19:52:02.425Z,98613.68
2023-02-17T19:54:30.148Z,98630.84
2023-02-17T19:56:58.484Z,98622.80
2023-02-17T19:59:26.184Z,98616.58
2023-02-17T20:01:58.630Z,98637.09
2023-02-17T20:04:26.385Z,98651.98
2023-02-17T20:06:54.297Z,98656.34
2023-02-17T20:09:23.285Z,98649.71
2023-02-17T20:11:53.568Z,98668.04
2023-02-17T20:14:22.322Z,98667.29
2023-02-17T20:16:53.107Z,98682.29
2023-02-17T20:19:21.446Z,98680.70
2023-02-17T20:21:49.278Z,98676.73
2023-02-17T20:24:17.129Z,98673.05
2023-02-17T20:26:46.701Z,98685.30
2023-02-17T20:29:15.136Z,98682.77
2023-02-17T20:31:43.470Z,98675.45
2023-02-17T20:34:37.434Z,98668.42
2023-02-17T20:37:06.645Z,98673.91
2023-02-17T20:39:36.122Z,98677.84
2023-02-17T20:42:04.308Z,98673.29
2023-02-17T20:44:32.603Z,98674.86
2023-02-17T20:47:00.494Z,98677.91
2023-02-17T20:49:28.504Z,98673.16
2023-02-17T20:51:56.264Z,98684.41
2023-02-17T20:54:25.510Z,98685.28
2023-02-17T20:56:53.757Z,98700.13
2023-02-17T20:59:21.596Z,98687.82
2023-02-17T21:01:49.785Z,98692.16
2023-02-17T21:04:17.749Z,98699.06
2023-02-17T21:06:46.141Z,98688.80
2023-02-17T21:09:17.341Z,98696.73
2023-02-17T21:11:46.651Z,98691.77
2023-02-17T21:14:14.981Z,98694.54
2023-02-17T21:16:42.734Z,98706.45
2023-02-17T21:19:10.500Z,98707.70
2023-02-17T21:21:39.217Z,98699.70
2023-02-17T21:24:07.126Z,98706.52
2023-02-17T21:26:34.933Z,98712.45
2023-02-17T21:29:03.387Z,98705.23
2023-02-17T21:31:31.966Z,98687.36
2023-02-17T21:34:00.342Z,98680.22
2023-02-17T21:36:29.539Z,98680.16
2023-02-17T21:38:57.813Z,98688.98
2023-02-17T21:41:27.555Z,98687.23
2023-02-17T21:44:11.374Z,98686.59
2023-02-17T21:46:41.695Z,98699.98
2023-02-17T21:49:11.098Z,98702.35
2023-02-17T21:51:40.242Z,98699.89
2023-02-17T21:54:09.384Z,98698.65
2023-02-17T21:56:37.884Z,98704.48
2023-02-17T21:59:05.918Z,98715.69
2023-02-17T22:01:34.351Z,98724.36
2023-02-17T22:04:02.905Z,98760.73
2023-02-17T22:06:35.642Z,98729.27
2023-02-17T22:09:06.416Z,98752.66
2023-02-17T22:11:37.046Z,98752.37
2023-02-17T22:14:09.899Z,98786.17
2023-02-17T22:16:38.802Z,98779.10
2023-02-17T22:19:08.579Z,98759.96
2023-02-17T22:21:36.493Z,98760.03
2023-02-17T22:24:04.386Z,98739.45
2023-02-17T22:26:32.162Z,98731.02
2023-02-17T22:29:00.035Z,98738.39
2023-02-17T22:31:30.332Z,98737.77
2023-02-17T22:34:01.157Z,98734.84
2023-02-17T22:36:32.123Z,98734.08
2023-02-17T22:39:00.721Z,98726.20
2023-02-17T22:41:28.582Z,98724.61
2023-02-17T22:43:56.498Z,98714.35
2023-02-17T22:46:26.954Z,98713.48
2023-02-17T22:48:56.478Z,98711.98
2023-02-17T22:51:30.513Z,98719.46
2023-02-17T22:54:00.275Z,98711.56
2023-02-17T22:56:29.091Z,98725.77
2023-02-17T22:59:00.645Z,98717.84
2023-02-17T23:01:30.750Z,98713.38
2023-02-17T23:03:58.815Z,98718.33
2023-02-17T23:06:29.427Z,98722.51
2023-02-17T23:08:57.924Z,98717.61
2023-02-17T23:11:45.561Z,98721.77
2023-02-17T23:14:14.650Z,98711.10
2023-02-17T23:16:42.741Z,98719.01
2023-02-17T23:19:13.364Z,98720.41
2023-02-17T23:21:48.495Z,98718.11
2023-02-17T23:24:17.624Z,98715.86
2023-02-17T23:26:47.420Z,98711.83
2023-02-17T23:29:16.254Z,98712.52
2023-02-17T23:31:44.414Z,98711.52
2023-02-17T23:34:14.073Z,98701.75
2023-02-17T23:36:43.668Z,98709.54
2023-02-17T23:39:12.489Z,98710.80
2023-02-17T23:41:40.265Z,98711.31
2023-02-17T23:44:10.361Z,98711.84
2023-02-17T23:46:39.981Z,98700.95
2023-02-17T23:49:08.265Z,98707.80
2023-02-17T23:51:35.993Z,98699.98
2023-02-17T23:54:03.691Z,98698.70
2023-02-17T23:56:33.976Z,98707.29
2023-02-17T23:59:02.140Z,98714.81
